sensor_id;sensor_type;location;lat;lon;timestamp;P1;durP1;ratioP1;P2;durP2;ratioP2
14740;SDS011;7462;53.530;9.414;2022-08-01T00:00:07;11.33;;;10.40;;
14740;SDS011;7462;53.530;9.414;2022-08-01T00:02:36;11.00;;;9.47;;
14740;SDS011;7462;53.530;9.414;2022-08-01T00:05:05;12.93;;;11.73;;
14740;SDS011;7462;53.530;9.414;2022-08-01T00:07:35;10.97;;;9.97;;
14740;SDS011;7462;53.530;9.414;2022-08-01T00:10:04;11.60;;;10.40;;
14740;SDS011;7462;53.530;9.414;2022-08-01T00:12:33;12.77;;;11.47;;
14740;SDS011;7462;53.530;9.414;2022-08-01T00:15:02;10.57;;;9.57;;
14740;SDS011;7462;53.530;9.414;2022-08-01T00:17:33;13.40;;;12.20;;
14740;SDS011;7462;53.530;9.414;2022-08-01T00:20:01;11.10;;;10.13;;
14740;SDS011;7462;53.530;9.414;2022-08-01T00:22:32;11.50;;;10.50;;
14740;SDS011;7462;53.530;9.414;2022-08-01T00:25:00;11.53;;;10.03;;
14740;SDS011;7462;53.530;9.414;2022-08-01T00:27:29;11.10;;;10.00;;
14740;SDS011;7462;53.530;9.414;2022-08-01T00:30:03;13.47;;;12.13;;
14740;SDS011;7462;53.530;9.414;2022-08-01T00:32:41;11.17;;;10.17;;
14740;SDS011;7462;53.530;9.414;2022-08-01T00:35:09;12.50;;;11.27;;
14740;SDS011;7462;53.530;9.414;2022-08-01T00:37:37;11.67;;;10.57;;
14740;SDS011;7462;53.530;9.414;2022-08-01T00:40:06;12.00;;;10.80;;
14740;SDS011;7462;53.530;9.414;2022-08-01T00:42:35;11.87;;;10.70;;
14740;SDS011;7462;53.530;9.414;2022-08-01T00:45:09;12.40;;;11.20;;
14740;SDS011;7462;53.530;9.414;2022-08-01T00:47:38;13.70;;;11.07;;
14740;SDS011;7462;53.530;9.414;2022-08-01T00:50:08;11.87;;;10.70;;
14740;SDS011;7462;53.530;9.414;2022-08-01T00:52:37;11.63;;;10.20;;
14740;SDS011;7462;53.530;9.414;2022-08-01T00:55:08;11.13;;;9.33;;
14740;SDS011;7462;53.530;9.414;2022-08-01T00:57:40;10.63;;;9.53;;
14740;SDS011;7462;53.530;9.414;2022-08-01T01:00:29;9.97;;;9.03;;
14740;SDS011;7462;53.530;9.414;2022-08-01T01:03:08;11.83;;;10.27;;
14740;SDS011;7462;53.530;9.414;2022-08-01T01:05:39;9.17;;;8.10;;
14740;SDS011;7462;53.530;9.414;2022-08-01T01:08:16;10.57;;;9.53;;
14740;SDS011;7462;53.530;9.414;2022-08-01T01:10:51;9.80;;;9.00;;
14740;SDS011;7462;53.530;9.414;2022-08-01T01:13:25;9.07;;;8.17;;
14740;SDS011;7462;53.530;9.414;2022-08-01T01:16:14;9.93;;;8.27;;
14740;SDS011;7462;53.530;9.414;2022-08-01T01:18:46;8.97;;;8.10;;
14740;SDS011;7462;53.530;9.414;2022-08-01T01:21:34;9.67;;;8.07;;
14740;SDS011;7462;53.530;9.414;2022-08-01T01:24:19;8.67;;;7.83;;
14740;SDS011;7462;53.530;9.414;2022-08-01T01:26:57;8.53;;;7.73;;
14740;SDS011;7462;53.530;9.414;2022-08-01T01:29:35;9.33;;;8.17;;
14740;SDS011;7462;53.530;9.414;2022-08-01T01:32:27;8.90;;;8.00;;
14740;SDS011;7462;53.530;9.414;2022-08-01T01:35:00;8.90;;;7.93;;
14740;SDS011;7462;53.530;9.414;2022-08-01T01:37:33;11.20;;;7.60;;
14740;SDS011;7462;53.530;9.414;2022-08-01T01:40:03;7.73;;;7.07;;
14740;SDS011;7462;53.530;9.414;2022-08-01T01:42:33;8.43;;;7.30;;
14740;SDS011;7462;53.530;9.414;2022-08-01T01:45:04;7.10;;;6.40;;
14740;SDS011;7462;53.530;9.414;2022-08-01T01:47:33;7.07;;;6.47;;
14740;SDS011;7462;53.530;9.414;2022-08-01T01:50:03;7.43;;;6.40;;
14740;SDS011;7462;53.530;9.414;2022-08-01T01:52:34;8.33;;;6.53;;
14740;SDS011;7462;53.530;9.414;2022-08-01T01:55:06;6.73;;;6.07;;
14740;SDS011;7462;53.530;9.414;2022-08-01T01:57:37;7.20;;;5.90;;
14740;SDS011;7462;53.530;9.414;2022-08-01T02:00:12;6.30;;;5.70;;
14740;SDS011;7462;53.530;9.414;2022-08-01T02:02:42;5.23;;;4.73;;
14740;SDS011;7462;53.530;9.414;2022-08-01T02:05:12;6.33;;;5.30;;
14740;SDS011;7462;53.530;9.414;2022-08-01T02:07:41;6.53;;;5.90;;
14740;SDS011;7462;53.530;9.414;2022-08-01T02:10:14;5.30;;;4.87;;
14740;SDS011;7462;53.530;9.414;2022-08-01T02:12:44;5.10;;;4.60;;
14740;SDS011;7462;53.530;9.414;2022-08-01T02:15:17;5.10;;;4.70;;
14740;SDS011;7462;53.530;9.414;2022-08-01T02:17:47;6.83;;;5.03;;
14740;SDS011;7462;53.530;9.414;2022-08-01T02:20:17;5.00;;;4.43;;
14740;SDS011;7462;53.530;9.414;2022-08-01T02:22:46;5.43;;;4.93;;
14740;SDS011;7462;53.530;9.414;2022-08-01T02:25:20;5.13;;;4.63;;
14740;SDS011;7462;53.530;9.414;2022-08-01T02:27:54;4.43;;;4.03;;
14740;SDS011;7462;53.530;9.414;2022-08-01T02:30:29;5.67;;;4.70;;
14740;SDS011;7462;53.530;9.414;2022-08-01T02:33:02;6.13;;;4.93;;
14740;SDS011;7462;53.530;9.414;2022-08-01T02:35:41;5.10;;;4.17;;
14740;SDS011;7462;53.530;9.414;2022-08-01T02:38:32;6.33;;;4.73;;
14740;SDS011;7462;53.530;9.414;2022-08-01T02:41:03;4.80;;;4.40;;
14740;SDS011;7462;53.530;9.414;2022-08-01T02:43:36;4.80;;;4.30;;
14740;SDS011;7462;53.530;9.414;2022-08-01T02:46:07;5.47;;;4.63;;
14740;SDS011;7462;53.530;9.414;2022-08-01T02:48:40;5.20;;;4.03;;
14740;SDS011;7462;53.530;9.414;2022-08-01T02:51:10;4.47;;;3.90;;
14740;SDS011;7462;53.530;9.414;2022-08-01T02:53:39;4.73;;;3.83;;
14740;SDS011;7462;53.530;9.414;2022-08-01T02:56:10;4.40;;;4.00;;
14740;SDS011;7462;53.530;9.414;2022-08-01T02:58:39;4.03;;;3.60;;
14740;SDS011;7462;53.530;9.414;2022-08-01T03:01:12;4.00;;;3.60;;
14740;SDS011;7462;53.530;9.414;2022-08-01T03:03:41;4.40;;;3.73;;
14740;SDS011;7462;53.530;9.414;2022-08-01T03:06:10;4.57;;;3.90;;
14740;SDS011;7462;53.530;9.414;2022-08-01T03:08:38;4.80;;;3.77;;
14740;SDS011;7462;53.530;9.414;2022-08-01T03:11:08;4.07;;;3.73;;
14740;SDS011;7462;53.530;9.414;2022-08-01T03:13:36;4.60;;;4.07;;
14740;SDS011;7462;53.530;9.414;2022-08-01T03:16:05;5.20;;;3.50;;
14740;SDS011;7462;53.530;9.414;2022-08-01T03:18:36;4.73;;;4.20;;
14740;SDS011;7462;53.530;9.414;2022-08-01T03:21:05;4.93;;;4.00;;
14740;SDS011;7462;53.530;9.414;2022-08-01T03:23:36;4.27;;;3.50;;
14740;SDS011;7462;53.530;9.414;2022-08-01T03:26:05;4.87;;;3.90;;
14740;SDS011;7462;53.530;9.414;2022-08-01T03:28:34;4.97;;;4.03;;
14740;SDS011;7462;53.530;9.414;2022-08-01T03:31:04;5.03;;;4.27;;
14740;SDS011;7462;53.530;9.414;2022-08-01T03:33:33;3.67;;;3.30;;
14740;SDS011;7462;53.530;9.414;2022-08-01T03:36:02;3.90;;;3.20;;
14740;SDS011;7462;53.530;9.414;2022-08-01T03:38:36;3.47;;;3.17;;
14740;SDS011;7462;53.530;9.414;2022-08-01T03:41:07;3.70;;;3.40;;
14740;SDS011;7462;53.530;9.414;2022-08-01T03:43:38;3.50;;;3.17;;
14740;SDS011;7462;53.530;9.414;2022-08-01T03:46:12;4.03;;;2.97;;
14740;SDS011;7462;53.530;9.414;2022-08-01T03:48:46;3.30;;;2.80;;
14740;SDS011;7462;53.530;9.414;2022-08-01T03:51:17;5.97;;;3.40;;
14740;SDS011;7462;53.530;9.414;2022-08-01T03:53:48;3.63;;;2.90;;
14740;SDS011;7462;53.530;9.414;2022-08-01T03:56:18;4.07;;;3.70;;
14740;SDS011;7462;53.530;9.414;2022-08-01T03:58:48;3.20;;;2.90;;
14740;SDS011;7462;53.530;9.414;2022-08-01T04:01:17;4.87;;;3.80;;
14740;SDS011;7462;53.530;9.414;2022-08-01T04:03:46;4.20;;;3.47;;
14740;SDS011;7462;53.530;9.414;2022-08-01T04:06:15;4.30;;;3.90;;
14740;SDS011;7462;53.530;9.414;2022-08-01T04:08:44;4.77;;;3.90;;
14740;SDS011;7462;53.530;9.414;2022-08-01T04:11:22;4.13;;;3.70;;
14740;SDS011;7462;53.530;9.414;2022-08-01T04:13:52;4.10;;;3.37;;
14740;SDS011;7462;53.530;9.414;2022-08-01T04:16:21;3.90;;;2.77;;
14740;SDS011;7462;53.530;9.414;2022-08-01T04:18:49;3.23;;;2.93;;
14740;SDS011;7462;53.530;9.414;2022-08-01T04:21:18;4.00;;;2.70;;
14740;SDS011;7462;53.530;9.414;2022-08-01T04:23:51;3.10;;;2.37;;
14740;SDS011;7462;53.530;9.414;2022-08-01T04:26:21;4.27;;;2.57;;
14740;SDS011;7462;53.530;9.414;2022-08-01T04:28:50;5.63;;;2.57;;
14740;SDS011;7462;53.530;9.414;2022-08-01T04:31:21;4.00;;;2.43;;
14740;SDS011;7462;53.530;9.414;2022-08-01T04:33:52;4.03;;;2.43;;
14740;SDS011;7462;53.530;9.414;2022-08-01T04:36:22;3.00;;;2.03;;
14740;SDS011;7462;53.530;9.414;2022-08-01T04:38:54;3.83;;;2.10;;
14740;SDS011;7462;53.530;9.414;2022-08-01T04:41:25;3.27;;;2.13;;
14740;SDS011;7462;53.530;9.414;2022-08-01T04:43:53;3.40;;;2.03;;
14740;SDS011;7462;53.530;9.414;2022-08-01T04:46:22;3.33;;;2.10;;
14740;SDS011;7462;53.530;9.414;2022-08-01T04:48:50;6.83;;;2.27;;
14740;SDS011;7462;53.530;9.414;2022-08-01T04:51:19;4.37;;;2.23;;
14740;SDS011;7462;53.530;9.414;2022-08-01T04:53:48;4.67;;;2.03;;
14740;SDS011;7462;53.530;9.414;2022-08-01T04:56:19;7.23;;;2.00;;
14740;SDS011;7462;53.530;9.414;2022-08-01T04:58:48;5.83;;;2.00;;
14740;SDS011;7462;53.530;9.414;2022-08-01T05:01:47;7.13;;;2.07;;
14740;SDS011;7462;53.530;9.414;2022-08-01T05:04:16;5.27;;;2.00;;
14740;SDS011;7462;53.530;9.414;2022-08-01T05:06:45;4.40;;;1.70;;
14740;SDS011;7462;53.530;9.414;2022-08-01T05:09:13;4.13;;;2.00;;
14740;SDS011;7462;53.530;9.414;2022-08-01T05:11:43;4.50;;;1.83;;
14740;SDS011;7462;53.530;9.414;2022-08-01T05:14:11;4.73;;;2.03;;
14740;SDS011;7462;53.530;9.414;2022-08-01T05:16:39;4.07;;;1.90;;
14740;SDS011;7462;53.530;9.414;2022-08-01T05:19:08;4.57;;;2.33;;
14740;SDS011;7462;53.530;9.414;2022-08-01T05:21:36;4.00;;;1.87;;
14740;SDS011;7462;53.530;9.414;2022-08-01T05:24:04;6.60;;;1.93;;
14740;SDS011;7462;53.530;9.414;2022-08-01T05:26:34;3.83;;;2.00;;
14740;SDS011;7462;53.530;9.414;2022-08-01T05:29:03;5.83;;;2.10;;
14740;SDS011;7462;53.530;9.414;2022-08-01T05:31:31;6.23;;;2.30;;
14740;SDS011;7462;53.530;9.414;2022-08-01T05:34:00;6.33;;;2.40;;
14740;SDS011;7462;53.530;9.414;2022-08-01T05:36:29;4.60;;;2.30;;
14740;SDS011;7462;53.530;9.414;2022-08-01T05:38:57;6.13;;;2.30;;
14740;SDS011;7462;53.530;9.414;2022-08-01T05:41:25;5.33;;;2.50;;
14740;SDS011;7462;53.530;9.414;2022-08-01T05:43:53;9.70;;;2.33;;
14740;SDS011;7462;53.530;9.414;2022-08-01T05:46:23;6.83;;;2.80;;
14740;SDS011;7462;53.530;9.414;2022-08-01T05:48:53;5.77;;;2.17;;
14740;SDS011;7462;53.530;9.414;2022-08-01T05:51:21;6.80;;;2.40;;
14740;SDS011;7462;53.530;9.414;2022-08-01T05:53:49;6.30;;;2.23;;
14740;SDS011;7462;53.530;9.414;2022-08-01T05:56:17;8.50;;;2.40;;
14740;SDS011;7462;53.530;9.414;2022-08-01T05:58:46;7.10;;;2.73;;
14740;SDS011;7462;53.530;9.414;2022-08-01T06:01:14;7.93;;;2.50;;
14740;SDS011;7462;53.530;9.414;2022-08-01T06:03:44;8.80;;;2.30;;
14740;SDS011;7462;53.530;9.414;2022-08-01T06:06:12;5.47;;;2.27;;
14740;SDS011;7462;53.530;9.414;2022-08-01T06:08:41;8.60;;;2.53;;
14740;SDS011;7462;53.530;9.414;2022-08-01T06:11:09;6.50;;;2.57;;
14740;SDS011;7462;53.530;9.414;2022-08-01T06:13:38;7.73;;;2.90;;
14740;SDS011;7462;53.530;9.414;2022-08-01T06:16:14;5.17;;;2.13;;
14740;SDS011;7462;53.530;9.414;2022-08-01T06:18:43;9.20;;;2.33;;
14740;SDS011;7462;53.530;9.414;2022-08-01T06:21:12;11.50;;;2.20;;
14740;SDS011;7462;53.530;9.414;2022-08-01T06:23:40;6.60;;;2.07;;
14740;SDS011;7462;53.530;9.414;2022-08-01T06:26:08;7.23;;;2.40;;
14740;SDS011;7462;53.530;9.414;2022-08-01T06:28:37;8.17;;;2.50;;
14740;SDS011;7462;53.530;9.414;2022-08-01T06:31:05;8.07;;;2.43;;
14740;SDS011;7462;53.530;9.414;2022-08-01T06:33:33;8.97;;;2.67;;
14740;SDS011;7462;53.530;9.414;2022-08-01T06:36:03;13.40;;;3.17;;
14740;SDS011;7462;53.530;9.414;2022-08-01T06:38:31;10.97;;;3.10;;
14740;SDS011;7462;53.530;9.414;2022-08-01T06:41:00;11.77;;;3.03;;
14740;SDS011;7462;53.530;9.414;2022-08-01T06:43:28;13.03;;;3.40;;
14740;SDS011;7462;53.530;9.414;2022-08-01T06:45:57;12.23;;;4.03;;
14740;SDS011;7462;53.530;9.414;2022-08-01T06:48:25;12.70;;;3.43;;
14740;SDS011;7462;53.530;9.414;2022-08-01T06:50:53;11.77;;;4.00;;
14740;SDS011;7462;53.530;9.414;2022-08-01T06:53:36;14.13;;;3.43;;
14740;SDS011;7462;53.530;9.414;2022-08-01T06:56:05;14.03;;;3.40;;
14740;SDS011;7462;53.530;9.414;2022-08-01T06:58:34;18.43;;;3.50;;
14740;SDS011;7462;53.530;9.414;2022-08-01T07:01:03;12.70;;;3.07;;
14740;SDS011;7462;53.530;9.414;2022-08-01T07:03:33;13.33;;;3.43;;
14740;SDS011;7462;53.530;9.414;2022-08-01T07:06:19;15.63;;;3.50;;
14740;SDS011;7462;53.530;9.414;2022-08-01T07:08:48;13.73;;;3.20;;
14740;SDS011;7462;53.530;9.414;2022-08-01T07:11:17;15.87;;;3.13;;
14740;SDS011;7462;53.530;9.414;2022-08-01T07:13:45;14.03;;;3.43;;
14740;SDS011;7462;53.530;9.414;2022-08-01T07:16:14;15.57;;;4.03;;
14740;SDS011;7462;53.530;9.414;2022-08-01T07:18:42;10.70;;;3.07;;
14740;SDS011;7462;53.530;9.414;2022-08-01T07:21:11;11.83;;;3.20;;
14740;SDS011;7462;53.530;9.414;2022-08-01T07:24:00;12.30;;;3.03;;
14740;SDS011;7462;53.530;9.414;2022-08-01T07:26:38;10.90;;;3.00;;
14740;SDS011;7462;53.530;9.414;2022-08-01T07:29:19;14.37;;;3.27;;
14740;SDS011;7462;53.530;9.414;2022-08-01T07:31:48;14.17;;;3.17;;
14740;SDS011;7462;53.530;9.414;2022-08-01T07:34:16;10.97;;;2.80;;
14740;SDS011;7462;53.530;9.414;2022-08-01T07:36:45;11.63;;;2.90;;
14740;SDS011;7462;53.530;9.414;2022-08-01T07:39:14;8.67;;;2.27;;
14740;SDS011;7462;53.530;9.414;2022-08-01T07:41:42;9.43;;;2.93;;
14740;SDS011;7462;53.530;9.414;2022-08-01T07:44:30;11.97;;;2.77;;
14740;SDS011;7462;53.530;9.414;2022-08-01T07:46:59;14.60;;;2.60;;
14740;SDS011;7462;53.530;9.414;2022-08-01T07:49:27;9.17;;;2.70;;
14740;SDS011;7462;53.530;9.414;2022-08-01T07:51:55;12.50;;;2.53;;
14740;SDS011;7462;53.530;9.414;2022-08-01T07:54:31;10.83;;;2.63;;
14740;SDS011;7462;53.530;9.414;2022-08-01T07:57:00;13.67;;;3.17;;
14740;SDS011;7462;53.530;9.414;2022-08-01T07:59:28;10.27;;;3.07;;
14740;SDS011;7462;53.530;9.414;2022-08-01T08:01:57;11.30;;;2.70;;
14740;SDS011;7462;53.530;9.414;2022-08-01T08:04:25;13.07;;;2.70;;
14740;SDS011;7462;53.530;9.414;2022-08-01T08:06:54;8.97;;;2.60;;
14740;SDS011;7462;53.530;9.414;2022-08-01T08:09:22;9.53;;;2.50;;
14740;SDS011;7462;53.530;9.414;2022-08-01T08:11:52;9.87;;;2.60;;
14740;SDS011;7462;53.530;9.414;2022-08-01T08:14:20;10.67;;;2.60;;
14740;SDS011;7462;53.530;9.414;2022-08-01T08:16:58;7.97;;;2.37;;
14740;SDS011;7462;53.530;9.414;2022-08-01T08:19:27;11.77;;;2.30;;
14740;SDS011;7462;53.530;9.414;2022-08-01T08:22:04;9.83;;;2.40;;
14740;SDS011;7462;53.530;9.414;2022-08-01T08:24:34;12.27;;;2.30;;
14740;SDS011;7462;53.530;9.414;2022-08-01T08:27:12;10.97;;;2.50;;
14740;SDS011;7462;53.530;9.414;2022-08-01T08:29:44;8.20;;;2.07;;
14740;SDS011;7462;53.530;9.414;2022-08-01T08:32:12;13.13;;;2.70;;
14740;SDS011;7462;53.530;9.414;2022-08-01T08:34:41;7.87;;;2.00;;
14740;SDS011;7462;53.530;9.414;2022-08-01T08:37:09;8.17;;;2.07;;
14740;SDS011;7462;53.530;9.414;2022-08-01T08:39:38;9.53;;;2.10;;
14740;SDS011;7462;53.530;9.414;2022-08-01T08:42:07;9.03;;;2.53;;
14740;SDS011;7462;53.530;9.414;2022-08-01T08:44:40;11.43;;;2.67;;
14740;SDS011;7462;53.530;9.414;2022-08-01T08:47:10;10.43;;;2.60;;
14740;SDS011;7462;53.530;9.414;2022-08-01T08:49:46;7.80;;;2.30;;
14740;SDS011;7462;53.530;9.414;2022-08-01T08:52:15;9.50;;;2.60;;
14740;SDS011;7462;53.530;9.414;2022-08-01T08:54:47;6.77;;;2.13;;
14740;SDS011;7462;53.530;9.414;2022-08-01T08:57:17;9.33;;;2.00;;
14740;SDS011;7462;53.530;9.414;2022-08-01T08:59:49;9.83;;;2.73;;
14740;SDS011;7462;53.530;9.414;2022-08-01T09:02:20;8.50;;;2.10;;
14740;SDS011;7462;53.530;9.414;2022-08-01T09:04:49;8.67;;;2.23;;
14740;SDS011;7462;53.530;9.414;2022-08-01T09:07:18;10.47;;;2.33;;
14740;SDS011;7462;53.530;9.414;2022-08-01T09:09:46;9.30;;;2.07;;
14740;SDS011;7462;53.530;9.414;2022-08-01T09:12:17;5.17;;;1.80;;
14740;SDS011;7462;53.530;9.414;2022-08-01T09:14:46;10.90;;;2.00;;
14740;SDS011;7462;53.530;9.414;2022-08-01T09:17:19;7.90;;;2.37;;
14740;SDS011;7462;53.530;9.414;2022-08-01T09:19:48;8.80;;;2.40;;
14740;SDS011;7462;53.530;9.414;2022-08-01T09:22:20;8.50;;;2.07;;
14740;SDS011;7462;53.530;9.414;2022-08-01T09:24:56;7.37;;;1.97;;
14740;SDS011;7462;53.530;9.414;2022-08-01T09:27:26;7.83;;;1.97;;
14740;SDS011;7462;53.530;9.414;2022-08-01T09:30:06;8.10;;;2.10;;
14740;SDS011;7462;53.530;9.414;2022-08-01T09:32:37;8.10;;;1.90;;
14740;SDS011;7462;53.530;9.414;2022-08-01T09:35:25;9.80;;;2.03;;
14740;SDS011;7462;53.530;9.414;2022-08-01T09:38:12;8.30;;;1.90;;
14740;SDS011;7462;53.530;9.414;2022-08-01T09:40:49;8.33;;;1.90;;
14740;SDS011;7462;53.530;9.414;2022-08-01T09:43:19;10.10;;;2.07;;
14740;SDS011;7462;53.530;9.414;2022-08-01T09:45:50;7.03;;;2.40;;
14740;SDS011;7462;53.530;9.414;2022-08-01T09:48:20;10.70;;;2.80;;
14740;SDS011;7462;53.530;9.414;2022-08-01T09:50:54;7.47;;;1.87;;
14740;SDS011;7462;53.530;9.414;2022-08-01T09:53:41;7.60;;;2.37;;
14740;SDS011;7462;53.530;9.414;2022-08-01T09:56:18;7.93;;;2.20;;
14740;SDS011;7462;53.530;9.414;2022-08-01T09:58:49;7.13;;;2.13;;
14740;SDS011;7462;53.530;9.414;2022-08-01T10:01:29;11.77;;;2.60;;
14740;SDS011;7462;53.530;9.414;2022-08-01T10:04:11;6.83;;;1.87;;
14740;SDS011;7462;53.530;9.414;2022-08-01T10:06:41;7.23;;;2.00;;
14740;SDS011;7462;53.530;9.414;2022-08-01T10:09:11;9.83;;;1.90;;
14740;SDS011;7462;53.530;9.414;2022-08-01T10:11:40;6.27;;;1.93;;
14740;SDS011;7462;53.530;9.414;2022-08-01T10:14:10;8.20;;;1.90;;
14740;SDS011;7462;53.530;9.414;2022-08-01T10:16:45;7.20;;;2.00;;
14740;SDS011;7462;53.530;9.414;2022-08-01T10:19:20;10.00;;;1.90;;
14740;SDS011;7462;53.530;9.414;2022-08-01T10:21:50;9.60;;;2.20;;
14740;SDS011;7462;53.530;9.414;2022-08-01T10:24:25;7.17;;;1.70;;
14740;SDS011;7462;53.530;9.414;2022-08-01T10:26:56;7.73;;;1.83;;
14740;SDS011;7462;53.530;9.414;2022-08-01T10:29:40;8.33;;;2.40;;
14740;SDS011;7462;53.530;9.414;2022-08-01T10:32:14;7.83;;;1.77;;
14740;SDS011;7462;53.530;9.414;2022-08-01T10:34:43;7.80;;;2.00;;
14740;SDS011;7462;53.530;9.414;2022-08-01T10:37:14;5.23;;;1.97;;
14740;SDS011;7462;53.530;9.414;2022-08-01T10:39:43;7.90;;;2.20;;
14740;SDS011;7462;53.530;9.414;2022-08-01T10:42:12;9.67;;;2.10;;
14740;SDS011;7462;53.530;9.414;2022-08-01T10:44:41;10.73;;;2.00;;
14740;SDS011;7462;53.530;9.414;2022-08-01T10:47:17;6.70;;;1.80;;
14740;SDS011;7462;53.530;9.414;2022-08-01T10:50:17;8.27;;;2.23;;
14740;SDS011;7462;53.530;9.414;2022-08-01T10:53:07;7.93;;;1.90;;
14740;SDS011;7462;53.530;9.414;2022-08-01T10:55:49;7.00;;;1.60;;
14740;SDS011;7462;53.530;9.414;2022-08-01T10:58:23;8.93;;;1.73;;
14740;SDS011;7462;53.530;9.414;2022-08-01T11:01:12;7.17;;;1.97;;
14740;SDS011;7462;53.530;9.414;2022-08-01T11:03:58;6.27;;;1.40;;
14740;SDS011;7462;53.530;9.414;2022-08-01T11:06:36;6.00;;;1.53;;
14740;SDS011;7462;53.530;9.414;2022-08-01T11:09:23;8.07;;;1.90;;
14740;SDS011;7462;53.530;9.414;2022-08-01T11:12:04;6.47;;;1.70;;
14740;SDS011;7462;53.530;9.414;2022-08-01T11:18:00;6.47;;;1.67;;
14740;SDS011;7462;53.530;9.414;2022-08-01T11:20:32;8.97;;;1.80;;
14740;SDS011;7462;53.530;9.414;2022-08-01T11:23:17;7.00;;;1.50;;
14740;SDS011;7462;53.530;9.414;2022-08-01T11:26:07;5.83;;;1.67;;
14740;SDS011;7462;53.530;9.414;2022-08-01T11:28:43;9.00;;;1.70;;
14740;SDS011;7462;53.530;9.414;2022-08-01T11:31:33;4.97;;;1.70;;
14740;SDS011;7462;53.530;9.414;2022-08-01T11:34:03;4.23;;;1.30;;
14740;SDS011;7462;53.530;9.414;2022-08-01T11:36:33;4.50;;;1.60;;
14740;SDS011;7462;53.530;9.414;2022-08-01T11:39:22;6.67;;;1.80;;
14740;SDS011;7462;53.530;9.414;2022-08-01T11:41:51;8.13;;;1.87;;
14740;SDS011;7462;53.530;9.414;2022-08-01T11:44:21;4.47;;;1.60;;
14740;SDS011;7462;53.530;9.414;2022-08-01T11:46:59;4.03;;;1.53;;
14740;SDS011;7462;53.530;9.414;2022-08-01T11:52:26;11.67;;;2.10;;
14740;SDS011;7462;53.530;9.414;2022-08-01T11:54:56;5.87;;;1.43;;
14740;SDS011;7462;53.530;9.414;2022-08-01T11:57:26;7.13;;;1.77;;
14740;SDS011;7462;53.530;9.414;2022-08-01T12:00:02;6.60;;;1.67;;
14740;SDS011;7462;53.530;9.414;2022-08-01T12:02:39;5.60;;;1.40;;
14740;SDS011;7462;53.530;9.414;2022-08-01T12:05:11;6.27;;;1.60;;
14740;SDS011;7462;53.530;9.414;2022-08-01T12:07:43;6.27;;;1.50;;
14740;SDS011;7462;53.530;9.414;2022-08-01T12:10:13;4.37;;;1.50;;
14740;SDS011;7462;53.530;9.414;2022-08-01T12:12:43;7.63;;;1.97;;
14740;SDS011;7462;53.530;9.414;2022-08-01T12:15:12;6.20;;;1.63;;
14740;SDS011;7462;53.530;9.414;2022-08-01T12:17:41;9.17;;;1.80;;
14740;SDS011;7462;53.530;9.414;2022-08-01T12:20:23;11.03;;;2.00;;
14740;SDS011;7462;53.530;9.414;2022-08-01T12:22:58;7.67;;;2.10;;
14740;SDS011;7462;53.530;9.414;2022-08-01T12:25:27;8.73;;;2.03;;
14740;SDS011;7462;53.530;9.414;2022-08-01T12:27:58;6.80;;;1.73;;
14740;SDS011;7462;53.530;9.414;2022-08-01T12:30:27;6.60;;;1.90;;
14740;SDS011;7462;53.530;9.414;2022-08-01T12:32:57;9.37;;;1.80;;
14740;SDS011;7462;53.530;9.414;2022-08-01T12:35:26;6.47;;;1.70;;
14740;SDS011;7462;53.530;9.414;2022-08-01T12:37:57;8.70;;;1.80;;
14740;SDS011;7462;53.530;9.414;2022-08-01T12:40:28;7.57;;;1.60;;
14740;SDS011;7462;53.530;9.414;2022-08-01T12:42:58;7.47;;;2.00;;
14740;SDS011;7462;53.530;9.414;2022-08-01T12:45:28;6.13;;;1.70;;
14740;SDS011;7462;53.530;9.414;2022-08-01T12:48:00;5.23;;;1.43;;
14740;SDS011;7462;53.530;9.414;2022-08-01T12:50:30;5.63;;;1.70;;
14740;SDS011;7462;53.530;9.414;2022-08-01T12:53:01;6.43;;;1.60;;
14740;SDS011;7462;53.530;9.414;2022-08-01T12:55:32;5.00;;;1.50;;
14740;SDS011;7462;53.530;9.414;2022-08-01T12:58:23;6.67;;;1.50;;
14740;SDS011;7462;53.530;9.414;2022-08-01T13:01:01;7.20;;;1.90;;
14740;SDS011;7462;53.530;9.414;2022-08-01T13:03:31;6.67;;;1.50;;
14740;SDS011;7462;53.530;9.414;2022-08-01T13:05:59;5.90;;;1.60;;
14740;SDS011;7462;53.530;9.414;2022-08-01T13:08:30;6.53;;;1.60;;
14740;SDS011;7462;53.530;9.414;2022-08-01T13:11:00;7.33;;;1.70;;
14740;SDS011;7462;53.530;9.414;2022-08-01T13:13:37;7.23;;;1.70;;
14740;SDS011;7462;53.530;9.414;2022-08-01T13:16:07;7.20;;;1.77;;
14740;SDS011;7462;53.530;9.414;2022-08-01T13:18:41;5.17;;;1.50;;
14740;SDS011;7462;53.530;9.414;2022-08-01T13:21:17;5.60;;;1.20;;
14740;SDS011;7462;53.530;9.414;2022-08-01T13:26:37;5.90;;;1.60;;
14740;SDS011;7462;53.530;9.414;2022-08-01T13:29:06;7.20;;;1.90;;
14740;SDS011;7462;53.530;9.414;2022-08-01T13:31:36;7.20;;;1.90;;
14740;SDS011;7462;53.530;9.414;2022-08-01T13:34:05;7.60;;;1.70;;
14740;SDS011;7462;53.530;9.414;2022-08-01T13:36:33;7.30;;;1.47;;
14740;SDS011;7462;53.530;9.414;2022-08-01T13:39:02;6.37;;;1.70;;
14740;SDS011;7462;53.530;9.414;2022-08-01T13:41:50;6.80;;;1.60;;
14740;SDS011;7462;53.530;9.414;2022-08-01T13:44:19;5.07;;;1.43;;
14740;SDS011;7462;53.530;9.414;2022-08-01T13:46:47;7.27;;;1.50;;
14740;SDS011;7462;53.530;9.414;2022-08-01T13:49:17;9.77;;;1.60;;
14740;SDS011;7462;53.530;9.414;2022-08-01T13:51:48;5.33;;;1.50;;
14740;SDS011;7462;53.530;9.414;2022-08-01T13:54:17;6.63;;;1.37;;
14740;SDS011;7462;53.530;9.414;2022-08-01T13:56:45;4.97;;;1.60;;
14740;SDS011;7462;53.530;9.414;2022-08-01T13:59:15;7.30;;;1.57;;
14740;SDS011;7462;53.530;9.414;2022-08-01T14:01:43;7.37;;;1.63;;
14740;SDS011;7462;53.530;9.414;2022-08-01T14:04:12;5.93;;;1.60;;
14740;SDS011;7462;53.530;9.414;2022-08-01T14:06:40;6.27;;;1.77;;
14740;SDS011;7462;53.530;9.414;2022-08-01T14:09:09;7.47;;;1.60;;
14740;SDS011;7462;53.530;9.414;2022-08-01T14:11:49;4.47;;;1.37;;
14740;SDS011;7462;53.530;9.414;2022-08-01T14:14:19;5.97;;;1.40;;
14740;SDS011;7462;53.530;9.414;2022-08-01T14:16:47;5.70;;;1.77;;
14740;SDS011;7462;53.530;9.414;2022-08-01T14:19:16;7.13;;;1.90;;
14740;SDS011;7462;53.530;9.414;2022-08-01T14:21:48;4.90;;;1.20;;
14740;SDS011;7462;53.530;9.414;2022-08-01T14:24:18;6.40;;;2.00;;
14740;SDS011;7462;53.530;9.414;2022-08-01T14:26:46;6.90;;;1.50;;
14740;SDS011;7462;53.530;9.414;2022-08-01T14:29:14;5.00;;;1.50;;
14740;SDS011;7462;53.530;9.414;2022-08-01T14:31:44;2.67;;;1.20;;
14740;SDS011;7462;53.530;9.414;2022-08-01T14:34:12;7.00;;;1.73;;
14740;SDS011;7462;53.530;9.414;2022-08-01T14:36:41;6.30;;;1.67;;
14740;SDS011;7462;53.530;9.414;2022-08-01T14:39:10;5.67;;;1.90;;
14740;SDS011;7462;53.530;9.414;2022-08-01T14:41:40;6.10;;;1.50;;
14740;SDS011;7462;53.530;9.414;2022-08-01T14:44:10;5.60;;;1.33;;
14740;SDS011;7462;53.530;9.414;2022-08-01T14:46:38;7.10;;;1.63;;
14740;SDS011;7462;53.530;9.414;2022-08-01T14:49:25;6.37;;;1.57;;
14740;SDS011;7462;53.530;9.414;2022-08-01T14:51:53;6.53;;;1.67;;
14740;SDS011;7462;53.530;9.414;2022-08-01T14:54:21;4.83;;;1.60;;
14740;SDS011;7462;53.530;9.414;2022-08-01T14:56:54;4.53;;;1.50;;
14740;SDS011;7462;53.530;9.414;2022-08-01T14:59:23;5.13;;;1.63;;
14740;SDS011;7462;53.530;9.414;2022-08-01T15:01:51;6.33;;;1.50;;
14740;SDS011;7462;53.530;9.414;2022-08-01T15:04:19;7.80;;;2.07;;
14740;SDS011;7462;53.530;9.414;2022-08-01T15:06:49;4.63;;;1.30;;
14740;SDS011;7462;53.530;9.414;2022-08-01T15:09:17;6.33;;;1.60;;
14740;SDS011;7462;53.530;9.414;2022-08-01T15:11:45;6.37;;;1.30;;
14740;SDS011;7462;53.530;9.414;2022-08-01T15:14:14;4.93;;;1.47;;
14740;SDS011;7462;53.530;9.414;2022-08-01T15:17:00;4.33;;;1.40;;
14740;SDS011;7462;53.530;9.414;2022-08-01T15:19:28;5.40;;;1.50;;
14740;SDS011;7462;53.530;9.414;2022-08-01T15:21:57;7.67;;;1.83;;
14740;SDS011;7462;53.530;9.414;2022-08-01T15:24:27;4.40;;;1.27;;
14740;SDS011;7462;53.530;9.414;2022-08-01T15:26:55;5.07;;;1.50;;
14740;SDS011;7462;53.530;9.414;2022-08-01T15:29:23;5.70;;;1.53;;
14740;SDS011;7462;53.530;9.414;2022-08-01T15:31:51;6.80;;;1.63;;
14740;SDS011;7462;53.530;9.414;2022-08-01T15:34:20;8.03;;;2.00;;